createdAt,value
2023-01-17T00:02:01.920Z,3.60
2023-01-17T00:04:48.701Z,3.60
2023-01-17T00:07:40.657Z,3.62
2023-01-17T00:10:11.856Z,3.59
2023-01-17T00:12:39.464Z,3.56
2023-01-17T00:15:08.573Z,3.48
2023-01-17T00:17:36.095Z,3.43
2023-01-17T00:20:23.367Z,3.37
2023-01-17T00:23:08.422Z,3.36
2023-01-17T00:25:56.076Z,3.35
2023-01-17T00:28:23.103Z,3.36
2023-01-17T00:30:50.048Z,3.42
2023-01-17T00:33:16.747Z,3.47
2023-01-17T00:35:44.799Z,3.50
2023-01-17T00:38:13.487Z,3.60
2023-01-17T00:40:41.448Z,3.61
2023-01-17T00:43:27.608Z,3.62
2023-01-17T00:46:13.483Z,3.66
2023-01-17T00:48:59.209Z,3.67
2023-01-17T00:51:46.488Z,3.68
2023-01-17T00:54:31.945Z,3.72
2023-01-17T00:57:17.407Z,3.73
2023-01-17T01:00:03.193Z,3.73
2023-01-17T01:02:48.298Z,3.75
2023-01-17T01:05:34.158Z,3.75
2023-01-17T01:08:21.525Z,3.75
2023-01-17T01:11:07.772Z,3.75
2023-01-17T01:13:53.220Z,3.73
2023-01-17T01:16:38.836Z,3.70
2023-01-17T01:19:24.883Z,3.67
2023-01-17T01:22:10.326Z,3.55
2023-01-17T01:24:56.659Z,3.58
2023-01-17T01:27:41.962Z,3.56
2023-01-17T01:30:28.263Z,3.54
2023-01-17T01:33:13.403Z,3.54
2023-01-17T01:35:42.063Z,3.52
2023-01-17T01:38:09.771Z,3.49
2023-01-17T01:40:44.439Z,3.50
2023-01-17T01:43:17.457Z,3.44
2023-01-17T01:45:47.832Z,3.42
2023-01-17T01:48:34.743Z,3.43
2023-01-17T01:51:04.844Z,3.42
2023-01-17T01:53:34.032Z,3.44
2023-01-17T01:56:03.599Z,3.40
2023-01-17T01:58:33.912Z,3.40
2023-01-17T02:01:01.689Z,3.37
2023-01-17T02:03:31.542Z,3.37
2023-01-17T02:06:03.679Z,3.35
2023-01-17T02:08:32.093Z,3.33
2023-01-17T02:10:59.757Z,3.20
2023-01-17T02:13:29.275Z,3.12
2023-01-17T02:16:01.989Z,3.08
2023-01-17T02:18:37.068Z,3.02
2023-01-17T02:21:16.282Z,2.95
2023-01-17T02:24:29.768Z,2.89
2023-01-17T02:27:02.708Z,2.89
2023-01-17T02:30:12.108Z,2.87
2023-01-17T02:32:50.724Z,2.91
2023-01-17T02:35:28.131Z,2.92
2023-01-17T02:38:00.221Z,2.95
2023-01-17T02:40:30.630Z,2.93
2023-01-17T02:43:02.843Z,2.94
2023-01-17T02:45:30.634Z,2.89
2023-01-17T02:47:59.760Z,2.83
2023-01-17T02:50:33.717Z,2.85
2023-01-17T02:53:13.818Z,2.79
2023-01-17T02:55:51.555Z,2.75
2023-01-17T02:58:28.499Z,2.68
2023-01-17T03:01:04.224Z,2.64
2023-01-17T03:03:36.031Z,2.60
2023-01-17T03:06:11.486Z,2.59
2023-01-17T03:08:40.550Z,2.52
2023-01-17T03:11:09.533Z,2.53
2023-01-17T03:13:37.878Z,2.41
2023-01-17T03:16:08.423Z,2.29
2023-01-17T03:18:37.869Z,2.22
2023-01-17T03:21:05.601Z,2.09
2023-01-17T03:23:33.258Z,2.07
2023-01-17T03:26:00.928Z,2.07
2023-01-17T03:28:28.558Z,2.10
2023-01-17T03:30:56.197Z,2.11
2023-01-17T03:33:24.394Z,2.14
2023-01-17T03:35:54.716Z,2.20
2023-01-17T03:38:22.283Z,2.21
2023-01-17T03:40:49.840Z,2.25
2023-01-17T03:43:17.309Z,2.21
2023-01-17T03:45:45.120Z,2.20
2023-01-17T03:48:12.893Z,2.17
2023-01-17T03:50:40.458Z,2.11
2023-01-17T03:53:09.552Z,2.02
2023-01-17T03:55:37.108Z,2.00
2023-01-17T03:58:04.662Z,2.00
2023-01-17T04:00:32.366Z,2.02
2023-01-17T04:03:00.096Z,2.02
2023-01-17T04:05:27.813Z,1.96
2023-01-17T04:07:55.514Z,1.95
2023-01-17T04:10:24.586Z,1.97
2023-01-17T04:12:52.185Z,1.96
2023-01-17T04:15:19.886Z,1.98
2023-01-17T04:17:47.663Z,1.98
2023-01-17T04:20:18.176Z,1.97
2023-01-17T04:22:45.856Z,1.99
2023-01-17T04:25:13.583Z,1.98
2023-01-17T04:27:42.629Z,1.97
2023-01-17T04:30:11.895Z,1.91
2023-01-17T04:32:39.589Z,1.88
2023-01-17T04:35:09.543Z,1.88
2023-01-17T04:37:37.609Z,1.91
2023-01-17T04:40:05.906Z,1.88
2023-01-17T04:42:33.539Z,1.83
2023-01-17T04:45:02.495Z,1.78
2023-01-17T04:47:30.069Z,1.68
2023-01-17T04:49:57.648Z,1.69
2023-01-17T04:52:25.451Z,1.64
2023-01-17T04:54:53.601Z,1.61
2023-01-17T04:57:21.203Z,1.62
2023-01-17T04:59:48.919Z,1.63
2023-01-17T05:02:18.273Z,1.63
2023-01-17T05:04:46.097Z,1.64
2023-01-17T05:07:13.824Z,1.68
2023-01-17T05:09:41.540Z,1.73
2023-01-17T05:12:09.172Z,1.78
2023-01-17T05:14:36.894Z,1.77
2023-01-17T05:17:04.662Z,1.82
2023-01-17T05:19:33.613Z,1.83
2023-01-17T05:22:04.130Z,1.85
2023-01-17T05:24:32.282Z,1.86
2023-01-17T05:27:03.950Z,1.84
2023-01-17T05:29:31.635Z,1.82
2023-01-17T05:31:59.397Z,1.76
2023-01-17T05:34:27.021Z,1.73
2023-01-17T05:36:56.916Z,1.71
2023-01-17T05:39:24.730Z,1.64
2023-01-17T05:41:52.302Z,1.74
2023-01-17T05:44:19.864Z,1.73
2023-01-17T05:46:47.572Z,1.69
2023-01-17T05:49:15.138Z,1.68
2023-01-17T05:51:42.810Z,1.76
2023-01-17T05:54:11.759Z,1.80
2023-01-17T05:56:39.353Z,1.78
2023-01-17T05:59:06.910Z,1.79
2023-01-17T06:01:34.661Z,1.77
2023-01-17T06:04:02.373Z,1.72
2023-01-17T06:06:29.930Z,1.72
2023-01-17T06:08:57.467Z,1.72
2023-01-17T06:11:26.798Z,1.66
2023-01-17T06:13:54.319Z,1.66
2023-01-17T06:16:21.932Z,1.66
2023-01-17T06:18:49.499Z,1.60
2023-01-17T06:21:20.287Z,1.54
2023-01-17T06:23:47.871Z,1.51
2023-01-17T06:26:15.419Z,1.55
2023-01-17T06:28:44.604Z,1.55
2023-01-17T06:31:12.707Z,1.56
2023-01-17T06:33:40.268Z,1.54
2023-01-17T06:36:08.226Z,1.53
2023-01-17T06:38:35.740Z,1.51
2023-01-17T06:41:05.610Z,1.56
2023-01-17T06:43:34.292Z,1.55
2023-01-17T06:46:03.277Z,1.55
2023-01-17T06:48:30.991Z,1.53
2023-01-17T06:50:59.112Z,1.50
2023-01-17T06:53:26.803Z,1.47
2023-01-17T06:55:57.482Z,1.54
2023-01-17T06:58:25.152Z,1.53
2023-01-17T07:00:52.796Z,1.49
2023-01-17T07:03:24.302Z,1.42
2023-01-17T07:05:53.191Z,1.36
2023-01-17T07:08:21.265Z,1.34
2023-01-17T07:10:49.512Z,1.30
2023-01-17T07:13:17.105Z,1.29
2023-01-17T07:15:44.855Z,1.32
2023-01-17T07:18:12.602Z,1.32
2023-01-17T07:20:44.854Z,1.38
2023-01-17T07:23:12.598Z,1.38
2023-01-17T07:25:40.142Z,1.38
2023-01-17T07:28:07.891Z,1.39
2023-01-17T07:30:36.619Z,1.38
2023-01-17T07:33:04.467Z,1.41
2023-01-17T07:35:32.203Z,1.43
2023-01-17T07:38:01.084Z,1.42
2023-01-17T07:40:28.677Z,1.42
2023-01-17T07:43:01.496Z,1.43
2023-01-17T07:45:29.283Z,1.35
2023-01-17T07:47:58.003Z,1.33
2023-01-17T07:50:25.696Z,1.29
2023-01-17T07:52:53.454Z,1.23
2023-01-17T07:55:22.843Z,1.19
2023-01-17T07:57:51.621Z,1.17
2023-01-17T08:00:19.980Z,1.24
2023-01-17T08:02:47.659Z,1.24
2023-01-17T08:05:15.602Z,1.20
2023-01-17T08:07:43.364Z,1.19
2023-01-17T08:10:13.255Z,1.20
2023-01-17T08:12:42.306Z,1.21
2023-01-17T08:15:11.889Z,1.27
2023-01-17T08:17:39.615Z,1.35
2023-01-17T08:20:07.470Z,1.31
2023-01-17T08:22:35.051Z,1.24
2023-01-17T08:25:02.961Z,1.29
2023-01-17T08:27:30.508Z,1.30
2023-01-17T08:29:59.717Z,1.38
2023-01-17T08:32:27.323Z,1.46
2023-01-17T08:34:56.652Z,1.42
2023-01-17T08:37:24.427Z,1.60
2023-01-17T08:39:51.919Z,1.53
2023-01-17T08:42:19.426Z,1.49
2023-01-17T08:44:46.997Z,1.56
2023-01-17T08:47:16.115Z,1.52
2023-01-17T08:49:44.265Z,1.47
2023-01-17T08:52:14.396Z,1.47
2023-01-17T08:54:41.975Z,1.46
2023-01-17T08:57:10.427Z,1.54
2023-01-17T08:59:37.959Z,1.55
2023-01-17T09:02:14.896Z,1.56
2023-01-17T09:04:46.305Z,1.41
2023-01-17T09:07:14.289Z,1.44
2023-01-17T09:09:41.888Z,1.40
2023-01-17T09:12:09.690Z,1.51
2023-01-17T09:14:37.414Z,1.57
2023-01-17T09:17:05.822Z,1.56
2023-01-17T09:19:33.830Z,1.56
2023-01-17T09:22:02.711Z,1.78
2023-01-17T09:24:31.050Z,1.75
2023-01-17T09:26:58.711Z,1.99
2023-01-17T09:29:26.450Z,1.75
2023-01-17T09:31:54.000Z,1.78
2023-01-17T09:34:21.780Z,2.02
2023-01-17T09:36:49.254Z,1.90
2023-01-17T09:39:18.297Z,1.84
2023-01-17T09:41:50.221Z,1.85
2023-01-17T09:44:24.777Z,1.85
2023-01-17T09:46:53.897Z,1.87
2023-01-17T09:49:33.632Z,1.92
2023-01-17T09:52:01.433Z,1.87
2023-01-17T09:54:36.465Z,1.85
2023-01-17T09:57:08.149Z,1.95
2023-01-17T09:59:45.426Z,2.15
2023-01-17T10:02:26.638Z,2.10
2023-01-17T10:05:08.629Z,2.15
2023-01-17T10:07:43.139Z,2.14
2023-01-17T10:10:31.102Z,1.96
2023-01-17T10:13:02.644Z,1.92
2023-01-17T10:15:38.895Z,1.83
2023-01-17T10:18:29.508Z,1.80
2023-01-17T10:21:04.678Z,1.82
2023-01-17T10:23:41.836Z,1.96
2023-01-17T10:26:12.598Z,2.02
2023-01-17T10:28:46.865Z,2.14
2023-01-17T10:31:17.949Z,2.07
2023-01-17T10:33:48.843Z,2.12
2023-01-17T10:36:20.763Z,2.12
2023-01-17T10:38:49.892Z,2.13
2023-01-17T10:41:23.753Z,2.44
2023-01-17T10:43:59.010Z,2.34
2023-01-17T10:46:29.485Z,2.32
2023-01-17T10:48:58.262Z,2.53
2023-01-17T10:51:43.937Z,2.51
2023-01-17T10:54:17.986Z,2.59
2023-01-17T10:56:47.269Z,2.97
2023-01-17T10:59:21.107Z,2.94
2023-01-17T11:01:51.001Z,2.87
2023-01-17T11:04:22.056Z,2.91
2023-01-17T11:07:11.231Z,2.98
2023-01-17T11:09:40.155Z,2.59
2023-01-17T11:12:18.724Z,2.73
2023-01-17T11:14:57.988Z,2.85
2023-01-17T11:17:27.496Z,3.19
2023-01-17T11:19:55.653Z,3.44
2023-01-17T11:22:24.904Z,3.02
2023-01-17T11:24:54.947Z,3.21
2023-01-17T11:27:28.557Z,2.93
2023-01-17T11:30:16.862Z,3.27
2023-01-17T11:32:53.219Z,3.64
2023-01-17T11:35:22.299Z,3.69
2023-01-17T11:37:52.827Z,3.57
2023-01-17T11:40:25.441Z,3.89
2023-01-17T11:43:19.612Z,3.84
2023-01-17T11:45:48.823Z,3.84
2023-01-17T11:48:18.341Z,3.72
2023-01-17T11:50:48.771Z,3.50
2023-01-17T11:53:20.566Z,3.60
2023-01-17T11:55:59.294Z,3.78
2023-01-17T11:58:29.328Z,3.90
2023-01-17T12:01:02.255Z,3.79
2023-01-17T12:03:42.388Z,3.38
2023-01-17T12:06:16.496Z,3.14
2023-01-17T12:08:58.055Z,3.31
2023-01-17T12:11:29.613Z,3.99
2023-01-17T12:14:03.911Z,3.93
2023-01-17T12:16:44.525Z,3.92
2023-01-17T12:19:26.151Z,4.04
2023-01-17T12:22:03.171Z,4.12
2023-01-17T12:24:52.739Z,4.14
2023-01-17T12:27:24.880Z,3.89
2023-01-17T12:30:04.507Z,4.22
2023-01-17T12:32:43.258Z,4.52
2023-01-17T12:35:15.484Z,4.23
2023-01-17T12:37:45.110Z,4.14
2023-01-17T12:40:21.113Z,4.55
2023-01-17T12:42:52.426Z,4.17
2023-01-17T12:45:25.049Z,4.53
2023-01-17T12:47:59.696Z,4.54
2023-01-17T12:50:30.710Z,4.53
2023-01-17T12:53:04.586Z,4.48
2023-01-17T12:55:40.056Z,4.29
2023-01-17T12:58:14.061Z,4.21
2023-01-17T13:00:44.167Z,4.21
2023-01-17T13:03:23.891Z,3.77
2023-01-17T13:05:52.399Z,3.87
2023-01-17T13:08:24.698Z,3.66
2023-01-17T13:10:55.812Z,3.91
2023-01-17T13:13:25.765Z,3.89
2023-01-17T13:15:57.075Z,3.79
2023-01-17T13:18:26.924Z,3.69
2023-01-17T13:21:06.233Z,3.59
2023-01-17T13:23:47.039Z,3.53
2023-01-17T13:26:22.311Z,3.49
2023-01-17T13:28:54.965Z,3.55
2023-01-17T13:31:31.543Z,3.69
2023-01-17T13:34:10.702Z,3.53
2023-01-17T13:36:50.472Z,3.57
2023-01-17T13:39:32.059Z,3.48
2023-01-17T13:42:10.544Z,3.52
2023-01-17T13:44:38.349Z,3.61
2023-01-17T13:47:31.006Z,3.51
2023-01-17T13:49:58.721Z,3.73
2023-01-17T13:52:35.839Z,3.69
2023-01-17T13:55:05.262Z,3.80
2023-01-17T13:57:40.548Z,3.99
2023-01-17T14:00:49.707Z,3.81
2023-01-17T14:03:57.585Z,3.65
2023-01-17T14:06:36.411Z,3.95
2023-01-17T14:09:06.493Z,4.35
2023-01-17T14:11:35.576Z,3.94
2023-01-17T14:14:42.929Z,3.90
2023-01-17T14:17:47.135Z,4.16
2023-01-17T14:20:47.924Z,4.03
2023-01-17T14:23:28.174Z,4.90
2023-01-17T14:25:59.214Z,5.70
2023-01-17T14:28:31.328Z,4.68
2023-01-17T14:31:00.136Z,4.81
2023-01-17T14:33:29.763Z,4.77
2023-01-17T14:36:00.235Z,5.08
2023-01-17T14:38:29.210Z,5.42
2023-01-17T14:40:58.827Z,5.51
2023-01-17T14:43:28.703Z,5.37
2023-01-17T14:46:00.245Z,4.95
2023-01-17T14:48:28.033Z,5.29
2023-01-17T14:50:59.998Z,5.47
2023-01-17T14:53:28.968Z,4.74
2023-01-17T14:56:01.643Z,4.82
2023-01-17T14:58:30.962Z,4.81
2023-01-17T15:01:01.068Z,3.98
2023-01-17T15:03:30.016Z,3.78
2023-01-17T15:06:06.369Z,3.58
2023-01-17T15:08:36.392Z,3.54
2023-01-17T15:11:06.262Z,3.25
2023-01-17T15:13:44.426Z,3.06
2023-01-17T15:16:19.577Z,2.93
2023-01-17T15:18:47.597Z,2.76
2023-01-17T15:21:19.202Z,2.64
2023-01-17T15:23:49.210Z,2.52
2023-01-17T15:26:18.127Z,2.40
2023-01-17T15:28:46.145Z,2.28
2023-01-17T15:31:15.684Z,2.25
2023-01-17T15:33:45.420Z,2.18
2023-01-17T15:36:25.827Z,2.02
2023-01-17T15:38:57.702Z,1.98
2023-01-17T15:41:25.900Z,1.88
2023-01-17T15:43:57.626Z,1.81
2023-01-17T15:46:30.801Z,1.76
2023-01-17T15:49:17.367Z,1.55
2023-01-17T15:51:52.471Z,1.53
2023-01-17T15:54:37.445Z,1.39
2023-01-17T15:57:20.700Z,1.25
2023-01-17T15:59:53.011Z,1.20
2023-01-17T16:02:49.839Z,1.20
2023-01-17T16:05:43.368Z,1.09
2023-01-17T16:08:32.700Z,1.20
2023-01-17T16:11:03.057Z,1.04
2023-01-17T16:13:32.223Z,0.89
2023-01-17T16:16:16.988Z,0.82
2023-01-17T16:18:46.503Z,0.87
2023-01-17T16:21:27.915Z,0.58
2023-01-17T16:23:57.828Z,0.48
2023-01-17T16:26:25.643Z,0.38
2023-01-17T16:28:53.089Z,0.28
2023-01-17T16:31:20.879Z,0.24
2023-01-17T16:33:50.708Z,0.17
2023-01-17T16:36:19.654Z,0.22
2023-01-17T16:38:50.173Z,0.33
2023-01-17T16:41:19.216Z,0.19
2023-01-17T16:43:48.143Z,0.12
2023-01-17T16:46:15.834Z,-0.01
2023-01-17T16:48:43.322Z,0.02
2023-01-17T16:51:10.827Z,-0.15
2023-01-17T16:53:38.414Z,-0.10
2023-01-17T16:56:13.460Z,-0.42
2023-01-17T16:58:42.717Z,-0.41
2023-01-17T17:01:11.397Z,-0.52
2023-01-17T17:03:38.932Z,-0.57
2023-01-17T17:06:07.136Z,-0.61
2023-01-17T17:08:35.544Z,-0.70
2023-01-17T17:11:13.286Z,-0.65
2023-01-17T17:13:43.514Z,-0.77
2023-01-17T17:16:16.494Z,-0.63
2023-01-17T17:18:45.198Z,-0.44
2023-01-17T17:21:12.894Z,-0.65
2023-01-17T17:23:40.444Z,-0.72
2023-01-17T17:26:08.321Z,-0.60
2023-01-17T17:28:36.671Z,-0.63
2023-01-17T17:31:08.181Z,-0.82
2023-01-17T17:33:36.971Z,-0.79
2023-01-17T17:36:10.114Z,-0.92
2023-01-17T17:38:38.486Z,-1.12
2023-01-17T17:41:07.534Z,-1.18
2023-01-17T17:43:40.437Z,-1.25
2023-01-17T17:46:09.721Z,-1.25
2023-01-17T17:48:37.740Z,-1.26
2023-01-17T17:51:05.832Z,-1.19
2023-01-17T17:53:33.815Z,-1.27
2023-01-17T17:56:05.924Z,-1.26
2023-01-17T17:58:34.972Z,-1.46
2023-01-17T18:01:03.967Z,-1.44
2023-01-17T18:03:33.149Z,-1.54
2023-01-17T18:06:05.384Z,-1.56
2023-01-17T18:08:33.815Z,-1.63
2023-01-17T18:11:02.224Z,-1.73
2023-01-17T18:13:30.723Z,-1.68
2023-01-17T18:16:07.760Z,-1.70
2023-01-17T18:18:38.242Z,-1.71
2023-01-17T18:21:10.347Z,-1.71
2023-01-17T18:23:39.150Z,-1.81
2023-01-17T18:26:06.925Z,-1.77
2023-01-17T18:28:34.397Z,-1.79
2023-01-17T18:31:08.468Z,-1.69
2023-01-17T18:33:39.499Z,-1.68
2023-01-17T18:36:08.763Z,-1.66
2023-01-17T18:38:39.641Z,-1.70
2023-01-17T18:41:08.069Z,-1.71
2023-01-17T18:43:36.121Z,-1.73
2023-01-17T18:46:04.051Z,-1.83
2023-01-17T18:48:31.670Z,-1.91
2023-01-17T18:51:02.796Z,-1.94
2023-01-17T18:53:31.287Z,-2.03
2023-01-17T18:56:00.123Z,-2.17
2023-01-17T18:58:28.766Z,-2.07
2023-01-17T19:00:56.654Z,-1.98
2023-01-17T19:03:28.651Z,-2.07
2023-01-17T19:05:56.122Z,-2.03
2023-01-17T19:08:25.335Z,-1.99
2023-01-17T19:10:52.800Z,-1.88
2023-01-17T19:13:20.280Z,-2.05
2023-01-17T19:15:48.223Z,-2.14
2023-01-17T19:18:16.017Z,-2.17
2023-01-17T19:20:43.647Z,-2.11
2023-01-17T19:23:11.177Z,-2.04
2023-01-17T19:25:40.073Z,-2.06
2023-01-17T19:28:08.314Z,-1.99
2023-01-17T19:30:39.047Z,-1.90
2023-01-17T19:33:06.804Z,-1.70
2023-01-17T19:35:37.421Z,-1.65
2023-01-17T19:38:05.192Z,-1.96
2023-01-17T19:40:32.736Z,-1.74
2023-01-17T19:43:01.766Z,-1.92
2023-01-17T19:45:29.374Z,-1.81
2023-01-17T19:47:57.417Z,-1.82
2023-01-17T19:50:25.321Z,-1.62
2023-01-17T19:52:53.240Z,-1.80
2023-01-17T19:55:25.724Z,-1.98
2023-01-17T19:57:53.392Z,-1.87
2023-01-17T20:00:29.953Z,-2.03
2023-01-17T20:02:57.897Z,-2.11
2023-01-17T20:05:25.744Z,-2.05
2023-01-17T20:07:53.343Z,-1.95
2023-01-17T20:10:20.962Z,-2.00
2023-01-17T20:12:48.670Z,-2.24
2023-01-17T20:15:16.483Z,-2.38
2023-01-17T20:17:45.656Z,-2.48
2023-01-17T20:20:13.726Z,-2.57
2023-01-17T20:22:42.468Z,-2.44
2023-01-17T20:25:10.941Z,-2.48
2023-01-17T20:27:38.550Z,-2.39
2023-01-17T20:30:19.238Z,-2.35
2023-01-17T20:32:49.349Z,-2.50
2023-01-17T20:35:18.049Z,-2.73
2023-01-17T20:37:45.539Z,-2.75
2023-01-17T20:40:13.885Z,-2.86
2023-01-17T20:42:41.563Z,-2.87
2023-01-17T20:45:11.202Z,-2.84
2023-01-17T20:47:38.863Z,-2.57
2023-01-17T20:50:09.695Z,-2.58
2023-01-17T20:52:37.207Z,-2.83
2023-01-17T20:55:08.249Z,-2.82
2023-01-17T20:57:36.001Z,-2.83
2023-01-17T21:00:03.599Z,-2.92
2023-01-17T21:02:31.186Z,-2.92
2023-01-17T21:04:59.906Z,-2.87
2023-01-17T21:07:28.787Z,-2.77
2023-01-17T21:09:57.433Z,-2.72
2023-01-17T21:12:24.955Z,-2.60
2023-01-17T21:14:53.770Z,-2.82
2023-01-17T21:17:21.345Z,-2.89
2023-01-17T21:19:49.028Z,-2.77
2023-01-17T21:22:16.968Z,-2.97
2023-01-17T21:24:46.019Z,-2.73
2023-01-17T21:27:13.690Z,-2.75
2023-01-17T21:29:41.221Z,-2.67
2023-01-17T21:32:09.004Z,-2.62
2023-01-17T21:34:36.520Z,-2.71
2023-01-17T21:37:04.101Z,-2.97
2023-01-17T21:39:31.737Z,-2.90
2023-01-17T21:42:00.671Z,-2.70
2023-01-17T21:44:28.344Z,-2.61
2023-01-17T21:46:56.660Z,-2.81
2023-01-17T21:49:24.844Z,-2.15
2023-01-17T21:52:10.296Z,-2.51
2023-01-17T21:54:55.522Z,-2.72
2023-01-17T21:57:42.278Z,-2.83
2023-01-17T22:00:12.478Z,-2.72
2023-01-17T22:02:40.886Z,-2.79
2023-01-17T22:05:09.355Z,-3.07
2023-01-17T22:07:39.035Z,-3.09
2023-01-17T22:10:07.710Z,-3.04
2023-01-17T22:12:36.804Z,-3.08
2023-01-17T22:15:04.844Z,-3.12
2023-01-17T22:17:32.391Z,-3.01
2023-01-17T22:20:00.050Z,-2.94
2023-01-17T22:22:27.752Z,-3.04
2023-01-17T22:24:56.550Z,-3.21
2023-01-17T22:27:24.077Z,-2.98
2023-01-17T22:29:53.152Z,-2.90
2023-01-17T22:32:20.878Z,-3.11
2023-01-17T22:34:48.470Z,-3.03
2023-01-17T22:37:16.070Z,-3.07
2023-01-17T22:39:43.824Z,-3.02
2023-01-17T22:42:13.236Z,-3.24
2023-01-17T22:44:40.769Z,-3.34
2023-01-17T22:47:09.663Z,-3.29
2023-01-17T22:49:37.204Z,-3.32
2023-01-17T22:52:04.904Z,-3.40
2023-01-17T22:54:32.543Z,-3.42
2023-01-17T22:57:00.228Z,-3.61
2023-01-17T22:59:27.901Z,-3.36
2023-01-17T23:01:55.559Z,-3.44
2023-01-17T23:04:24.590Z,-3.41
2023-01-17T23:06:52.120Z,-3.45
2023-01-17T23:09:19.920Z,-3.40
2023-01-17T23:11:50.888Z,-3.56
2023-01-17T23:14:20.734Z,-3.45
2023-01-17T23:17:07.646Z,-3.45
2023-01-17T23:19:37.765Z,-3.53
2023-01-17T23:22:24.689Z,-3.17
2023-01-17T23:24:53.470Z,-2.75
2023-01-17T23:27:41.767Z,-3.23
2023-01-17T23:30:11.712Z,-3.11
2023-01-17T23:32:39.772Z,-3.22
2023-01-17T23:35:09.608Z,-3.24
2023-01-17T23:37:54.794Z,-3.25
2023-01-17T23:40:22.618Z,-3.28
2023-01-17T23:43:08.142Z,-3.25
2023-01-17T23:45:37.001Z,-3.30
2023-01-17T23:48:05.783Z,-3.32
2023-01-17T23:50:34.879Z,-3.24
2023-01-17T23:53:07.005Z,-3.01
2023-01-17T23:55:36.507Z,-3.05
2023-01-17T23:58:04.688Z,-3.08
